X  Cerrar Datos meteorológicos de aviación METAR     EBBR Brussels Airport
Temperatura
10°C Temperatura
1°C Punto de rocío
54% Humedad



Viento
16 KM/H
10 MPH
4 M/S
9 NUDO



320°
NO
Condiciones actuales

Parcialmente nublado Parcialmente nublado
Presión 1034.92 (hPa) - 30.56 (inHg)
Visibilidad 6.2 (milla) - 10 (km)
Aeropuerto
Código de aeropuerto EBBR

localidad: Brussels Airport
Distancia: 14 (km)

Metar:
EBBR 261520Z 32009KT 290V350 9999 FEW041 10/01 Q1035 NOSIG

Hora: 02-26-2021 16:20 CET